Longworth, Texas
Current Conditions -  °F | °C
As of 5:15 AM on Monday 20 Oct 2014 (Local Time) from KSWW Reporting Station
Clear Clear  
Wind Chill: 62°   Ceiling: Unl
Heat Index: 62°   Visibility: 10mi
Dew Point: 58°   Wind: 7mph
Humidity: 87%   Direction: 160°SSE
Pressure: 30.09"   Gusts: NA
Location:  32.6787°N, 100.492°W
Report Text: KSWW 201015Z AUTO 16006KT 10SM CLR 17/15 A3009 RMK AO2 T01680147
Loading
Personal Weather Stations






























Interactive Weather Map
Tropical Storm Tracking
New forecast layout! Learn more

10-Day Weather Forecast

Advertisements
Track Severe Weather on mobile